Sunny Acres, Indiana
Current Conditions -  °F | °C
As of 4:54 PM on Friday 24 Oct 2014 (Local Time) from KFWA Reporting Station
Overcast Overcast  
Wind Chill: 63°   Ceiling: 3300
Heat Index: 63°   Visibility: 10mi
Dew Point: 49°   Wind: 8mph
Humidity: 60%   Direction: 260°W
Pressure: 30.01"   Gusts: NA
Location:  40.8317°N, 84.9398°W
Report Text: KFWA 242054Z 26007KT 10SM BKN033 BKN040 OVC250 17/09 A3001 RMK AO2 SLP164 T01720094 56017
Loading
Personal Weather Stations






























Interactive Weather Map
Tropical Storm Tracking
New forecast layout! Learn more

10-Day Weather Forecast

Advertisements
Track Severe Weather on mobile